createdAt,value
2018-06-21T00:01:37.935Z,6.87
2018-06-21T00:04:09.751Z,6.77
2018-06-21T00:06:42.904Z,7.00
2018-06-21T00:09:14.844Z,6.37
2018-06-21T00:11:48.213Z,6.40
2018-06-21T00:14:20.582Z,7.37
2018-06-21T00:16:53.407Z,6.73
2018-06-21T00:19:25.388Z,7.07
2018-06-21T00:21:58.417Z,6.77
2018-06-21T00:24:30.433Z,6.50
2018-06-21T00:27:02.505Z,6.30
2018-06-21T00:29:34.708Z,6.60
2018-06-21T00:32:06.764Z,7.13
2018-06-21T00:34:39.689Z,7.33
2018-06-21T00:37:11.465Z,7.07
2018-06-21T00:39:48.298Z,6.93
2018-06-21T00:42:20.329Z,7.40
2018-06-21T00:44:52.445Z,7.40
2018-06-21T00:47:24.206Z,7.77
2018-06-21T00:49:56.371Z,7.70
2018-06-21T00:52:28.367Z,7.67
2018-06-21T00:55:00.837Z,7.27
2018-06-21T00:57:33.802Z,6.87
2018-06-21T01:00:05.916Z,7.73
2018-06-21T01:02:39.002Z,7.53
2018-06-21T01:05:10.865Z,8.47
2018-06-21T01:07:50.884Z,7.23
2018-06-21T01:10:22.485Z,7.40
2018-06-21T01:12:57.577Z,7.07
2018-06-21T01:15:28.664Z,7.50
2018-06-21T01:18:01.413Z,6.97
2018-06-21T01:20:33.077Z,7.80
2018-06-21T01:23:04.533Z,8.40
2018-06-21T01:25:37.094Z,8.13
2018-06-21T01:28:08.188Z,8.03
2018-06-21T01:30:39.256Z,8.30
2018-06-21T01:33:10.217Z,8.77
2018-06-21T01:35:40.933Z,8.40
2018-06-21T01:38:12.899Z,8.30
2018-06-21T01:40:44.559Z,7.90
2018-06-21T01:43:16.900Z,8.03
2018-06-21T01:45:49.928Z,8.00
2018-06-21T01:48:20.988Z,8.57
2018-06-21T01:50:53.559Z,8.37
2018-06-21T01:53:24.243Z,8.10
2018-06-21T01:55:55.588Z,8.30
2018-06-21T01:58:27.038Z,8.53
2018-06-21T02:00:59.741Z,8.80
2018-06-21T02:03:31.044Z,8.87
2018-06-21T02:06:02.648Z,8.43
2018-06-21T02:08:34.235Z,8.83
2018-06-21T02:11:04.305Z,9.03
2018-06-21T02:13:35.481Z,9.43
2018-06-21T02:16:07.048Z,8.70
2018-06-21T02:18:37.860Z,8.93
2018-06-21T02:21:09.251Z,8.53
2018-06-21T02:23:41.156Z,8.87
2018-06-21T02:26:12.955Z,9.07
2018-06-21T02:28:46.172Z,9.27
2018-06-21T02:31:17.185Z,9.47
2018-06-21T02:33:49.075Z,8.43
2018-06-21T02:36:20.427Z,9.23
2018-06-21T02:38:51.903Z,10.10
2018-06-21T02:41:22.786Z,10.70
2018-06-21T02:43:55.746Z,10.30
2018-06-21T02:46:26.640Z,10.30
2018-06-21T02:48:58.208Z,10.80
2018-06-21T02:51:31.182Z,12.10
2018-06-21T02:54:02.804Z,11.23
2018-06-21T02:56:34.980Z,11.60
2018-06-21T02:59:06.746Z,11.60
2018-06-21T03:01:38.352Z,11.50
2018-06-21T03:04:10.141Z,12.33
2018-06-21T03:06:41.491Z,11.50
2018-06-21T03:09:12.972Z,12.00
2018-06-21T03:11:44.718Z,12.83
2018-06-21T03:14:16.272Z,12.70
2018-06-21T03:16:49.769Z,12.10
2018-06-21T03:19:20.711Z,13.10
2018-06-21T03:21:52.265Z,12.83
2018-06-21T03:24:24.259Z,11.60
2018-06-21T03:26:56.294Z,11.80
2018-06-21T03:29:28.021Z,12.13
2018-06-21T03:31:59.393Z,10.73
2018-06-21T03:34:30.535Z,11.67
2018-06-21T03:37:01.850Z,12.27
2018-06-21T03:39:32.101Z,11.27
2018-06-21T03:42:04.494Z,10.47
2018-06-21T03:44:36.484Z,11.50
2018-06-21T03:47:08.949Z,10.60
2018-06-21T03:49:40.514Z,10.77
2018-06-21T03:52:12.838Z,10.97
2018-06-21T03:54:44.854Z,9.80
2018-06-21T03:57:16.825Z,9.80
2018-06-21T03:59:49.965Z,10.33
2018-06-21T04:02:22.308Z,9.00
2018-06-21T04:04:54.067Z,8.83
2018-06-21T04:07:26.013Z,8.90
2018-06-21T04:09:59.919Z,9.60
2018-06-21T04:12:36.841Z,8.33
2018-06-21T04:15:08.987Z,8.53
2018-06-21T04:17:46.240Z,9.47
2018-06-21T04:20:18.397Z,9.07
2018-06-21T04:22:50.589Z,8.87
2018-06-21T04:25:24.287Z,9.20
2018-06-21T04:28:02.994Z,8.43
2018-06-21T04:30:36.119Z,8.90
2018-06-21T04:33:07.875Z,8.33
2018-06-21T04:35:40.524Z,8.37
2018-06-21T04:38:12.206Z,9.17
2018-06-21T04:40:43.043Z,8.80
2018-06-21T04:43:15.842Z,8.53
2018-06-21T04:45:47.060Z,10.27
2018-06-21T04:48:18.525Z,11.13
2018-06-21T04:50:50.862Z,11.07
2018-06-21T04:53:25.421Z,12.17
2018-06-21T04:55:57.125Z,11.33
2018-06-21T04:58:27.715Z,13.40
2018-06-21T05:01:01.948Z,15.07
2018-06-21T05:03:33.090Z,15.07
2018-06-21T05:06:09.558Z,15.63
2018-06-21T05:08:41.303Z,16.97
2018-06-21T05:11:19.499Z,19.17
2018-06-21T05:13:52.136Z,17.30
2018-06-21T05:16:26.562Z,18.67
2018-06-21T05:19:02.617Z,19.70
2018-06-21T05:21:38.342Z,18.70
2018-06-21T05:24:18.360Z,18.63
2018-06-21T05:26:50.730Z,18.33
2018-06-21T05:29:23.615Z,19.07
2018-06-21T05:31:56.363Z,18.43
2018-06-21T05:34:28.411Z,18.03
2018-06-21T05:37:01.040Z,19.07
2018-06-21T05:39:34.353Z,21.47
2018-06-21T05:42:07.359Z,22.63
2018-06-21T05:44:39.592Z,22.63
2018-06-21T05:47:15.962Z,23.60
2018-06-21T05:49:48.759Z,25.13
2018-06-21T05:52:20.764Z,26.10
2018-06-21T05:54:52.192Z,28.07
2018-06-21T05:57:24.330Z,27.57
2018-06-21T06:00:08.955Z,32.33
2018-06-21T06:02:44.314Z,35.97
2018-06-21T06:05:21.223Z,27.77
2018-06-21T06:07:53.435Z,25.50
2018-06-21T06:10:25.360Z,23.30
2018-06-21T06:12:56.649Z,23.73
2018-06-21T06:15:28.141Z,24.27
2018-06-21T06:18:04.411Z,20.97
2018-06-21T06:20:36.682Z,22.03
2018-06-21T06:23:08.155Z,20.77
2018-06-21T06:25:39.869Z,21.63
2018-06-21T06:28:12.762Z,20.50
2018-06-21T06:30:50.297Z,21.00
2018-06-21T06:33:23.029Z,20.90
2018-06-21T06:35:55.937Z,19.77
2018-06-21T06:38:28.084Z,19.63
2018-06-21T06:41:01.104Z,20.20
2018-06-21T06:43:34.371Z,20.13
2018-06-21T06:46:05.668Z,18.10
2018-06-21T06:48:37.646Z,19.67
2018-06-21T06:51:11.420Z,18.83
2018-06-21T06:53:42.476Z,18.13
2018-06-21T06:56:15.824Z,19.83
2018-06-21T06:58:49.294Z,18.87
2018-06-21T07:01:22.764Z,17.40
2018-06-21T07:03:54.724Z,15.80
2018-06-21T07:06:26.451Z,16.80
2018-06-21T07:09:03.428Z,15.03
2018-06-21T07:11:39.199Z,14.53
2018-06-21T07:14:11.513Z,14.40
2018-06-21T07:16:45.690Z,13.27
2018-06-21T07:19:19.165Z,12.63
2018-06-21T07:21:55.605Z,11.90
2018-06-21T07:24:27.517Z,9.83
2018-06-21T07:26:58.394Z,8.57
2018-06-21T07:29:29.101Z,9.10
2018-06-21T07:32:01.442Z,9.10
2018-06-21T07:34:37.913Z,9.10
2018-06-21T07:37:08.154Z,9.17
2018-06-21T07:39:44.124Z,9.13
2018-06-21T07:42:15.298Z,8.17
2018-06-21T07:44:46.678Z,5.80
2018-06-21T07:47:17.260Z,3.23
2018-06-21T07:49:47.775Z,3.30
2018-06-21T07:52:18.741Z,3.20
2018-06-21T07:54:53.972Z,3.17
2018-06-21T07:57:25.648Z,3.07
2018-06-21T07:59:57.094Z,3.13
2018-06-21T08:02:28.763Z,3.17
2018-06-21T08:05:00.457Z,3.20
2018-06-21T08:07:32.380Z,3.00
2018-06-21T08:10:04.116Z,2.73
2018-06-21T08:12:36.164Z,3.20
2018-06-21T08:15:07.888Z,2.67
2018-06-21T08:17:42.784Z,3.20
2018-06-21T08:20:14.678Z,2.87
2018-06-21T08:22:46.620Z,2.27
2018-06-21T08:25:19.342Z,2.10
2018-06-21T08:27:51.125Z,2.37
2018-06-21T08:30:24.392Z,2.30
2018-06-21T08:32:55.716Z,2.40
2018-06-21T08:35:30.486Z,3.00
2018-06-21T08:38:01.384Z,2.60
2018-06-21T08:40:33.764Z,2.43
2018-06-21T08:43:05.458Z,3.13
2018-06-21T08:45:36.666Z,3.00
2018-06-21T08:48:08.796Z,2.87
2018-06-21T08:50:40.476Z,2.37
2018-06-21T08:53:13.241Z,2.50
2018-06-21T08:55:46.328Z,2.20
2018-06-21T08:58:17.850Z,2.33
2018-06-21T09:00:49.660Z,2.40
2018-06-21T09:03:25.400Z,2.80
2018-06-21T09:05:56.439Z,2.60
2018-06-21T09:08:27.482Z,2.50
2018-06-21T09:10:58.372Z,2.33
2018-06-21T09:13:58.137Z,2.60
2018-06-21T09:16:29.665Z,2.20
2018-06-21T09:19:00.819Z,2.43
2018-06-21T09:21:32.336Z,3.00
2018-06-21T09:24:03.178Z,2.43
2018-06-21T09:26:37.949Z,2.30
2018-06-21T09:29:09.760Z,2.10
2018-06-21T09:31:41.088Z,2.50
2018-06-21T09:34:12.004Z,2.60
2018-06-21T09:36:43.676Z,2.03
2018-06-21T09:39:20.492Z,2.60
2018-06-21T09:44:34.709Z,2.17
2018-06-21T09:48:13.040Z,1.93
2018-06-21T09:50:44.842Z,1.87
2018-06-21T09:53:16.451Z,1.77
2018-06-21T09:55:48.978Z,2.20
2018-06-21T09:58:20.389Z,2.17
2018-06-21T10:03:35.096Z,1.97
2018-06-21T10:06:06.910Z,1.80
2018-06-21T10:08:38.677Z,2.00
2018-06-21T10:11:10.071Z,1.80
2018-06-21T10:13:41.395Z,2.10
2018-06-21T10:16:23.867Z,2.37
2018-06-21T10:18:58.946Z,1.60
2018-06-21T10:21:30.273Z,2.00
2018-06-21T10:24:01.701Z,2.10
2018-06-21T10:26:33.041Z,2.40
2018-06-21T10:29:03.734Z,2.60
2018-06-21T10:31:35.699Z,2.30
2018-06-21T10:34:12.112Z,2.27
2018-06-21T10:36:43.697Z,2.37
2018-06-21T10:39:15.543Z,2.17
2018-06-21T10:41:47.036Z,2.30
2018-06-21T10:44:19.278Z,2.03
2018-06-21T10:46:50.798Z,1.73
2018-06-21T10:49:22.355Z,2.30
2018-06-21T10:51:54.495Z,1.90
2018-06-21T10:54:26.255Z,1.60
2018-06-21T10:56:57.715Z,1.47
2018-06-21T10:59:33.159Z,1.50
2018-06-21T11:02:04.707Z,1.60
2018-06-21T11:04:36.770Z,1.60
2018-06-21T11:07:08.632Z,1.87
2018-06-21T11:09:39.270Z,1.60
2018-06-21T11:12:10.517Z,1.33
2018-06-21T11:14:43.392Z,1.70
2018-06-21T11:17:20.730Z,1.80
2018-06-21T11:19:52.417Z,2.00
2018-06-21T11:22:23.982Z,1.70
2018-06-21T11:25:12.411Z,1.47
2018-06-21T11:27:43.933Z,1.53
2018-06-21T11:30:15.534Z,1.60
2018-06-21T11:32:47.686Z,1.83
2018-06-21T11:35:19.157Z,2.10
2018-06-21T11:37:49.898Z,1.37
2018-06-21T11:40:21.729Z,1.60
2018-06-21T11:42:52.442Z,1.57
2018-06-21T11:45:23.043Z,1.50
2018-06-21T11:47:54.064Z,1.27
2018-06-21T11:50:25.298Z,1.60
2018-06-21T11:53:04.562Z,1.80
2018-06-21T11:55:39.197Z,1.67
2018-06-21T11:58:10.546Z,1.50
2018-06-21T12:00:42.079Z,1.90
2018-06-21T12:03:13.149Z,1.37
2018-06-21T12:05:44.996Z,1.50
2018-06-21T12:08:16.222Z,1.67
2018-06-21T12:10:50.995Z,1.77
2018-06-21T12:13:23.641Z,1.53
2018-06-21T12:15:55.492Z,1.70
2018-06-21T12:18:26.886Z,1.90
2018-06-21T12:20:57.771Z,1.70
2018-06-21T12:23:29.130Z,2.60
2018-06-21T12:25:59.931Z,1.90
2018-06-21T12:28:30.770Z,1.97
2018-06-21T12:31:08.222Z,1.60
2018-06-21T12:33:39.466Z,1.70
2018-06-21T12:36:11.079Z,1.67
2018-06-21T12:38:42.310Z,1.60
2018-06-21T12:41:13.268Z,1.53
2018-06-21T12:43:44.443Z,1.80
2018-06-21T12:46:14.960Z,1.93
2018-06-21T12:48:46.231Z,2.03
2018-06-21T12:51:16.690Z,1.70
2018-06-21T12:53:47.933Z,1.93
2018-06-21T12:56:23.600Z,1.67
2018-06-21T12:58:55.221Z,1.47
2018-06-21T13:01:27.781Z,1.73
2018-06-21T13:03:59.176Z,1.80
2018-06-21T13:06:34.701Z,1.70
2018-06-21T13:09:16.241Z,1.73
2018-06-21T13:12:55.694Z,2.30
2018-06-21T13:15:26.909Z,1.80
2018-06-21T13:17:59.615Z,1.90
2018-06-21T13:20:31.117Z,1.70
2018-06-21T13:23:02.489Z,2.00
2018-06-21T13:25:33.974Z,1.90
2018-06-21T13:28:05.189Z,2.10
2018-06-21T13:30:40.485Z,1.90
2018-06-21T13:33:15.621Z,1.77
2018-06-21T13:35:47.148Z,1.83
2018-06-21T13:38:22.123Z,2.20
2018-06-21T13:40:53.350Z,2.10
2018-06-21T13:43:27.179Z,1.70
2018-06-21T13:45:57.941Z,1.83
2018-06-21T13:48:33.241Z,2.13
2018-06-21T13:51:08.101Z,1.93
2018-06-21T13:53:38.939Z,1.67
2018-06-21T13:56:10.170Z,1.60
2018-06-21T13:58:41.872Z,2.13
2018-06-21T14:01:13.126Z,2.10
2018-06-21T14:06:41.822Z,1.60
2018-06-21T14:09:13.505Z,1.80
2018-06-21T14:11:48.486Z,1.80
2018-06-21T14:14:19.554Z,1.77
2018-06-21T14:16:50.987Z,2.17
2018-06-21T14:19:22.219Z,2.50
2018-06-21T14:21:54.020Z,2.03
2018-06-21T14:24:24.283Z,2.53
2018-06-21T14:27:00.018Z,2.10
2018-06-21T14:29:31.506Z,2.20
2018-06-21T14:32:07.005Z,1.80
2018-06-21T14:34:39.293Z,1.77
2018-06-21T14:37:10.837Z,1.73
2018-06-21T14:39:45.425Z,2.10
2018-06-21T14:42:17.240Z,2.03
2018-06-21T14:44:48.477Z,1.77
2018-06-21T14:47:27.613Z,1.70
2018-06-21T14:49:59.308Z,1.87
2018-06-21T14:52:30.411Z,2.03
2018-06-21T14:55:01.173Z,2.20
2018-06-21T14:57:32.643Z,1.63
2018-06-21T15:00:04.269Z,2.20
2018-06-21T15:02:36.155Z,2.30
2018-06-21T15:05:08.591Z,1.50
2018-06-21T15:07:42.433Z,1.70
2018-06-21T15:10:14.798Z,1.63
2018-06-21T15:12:46.465Z,2.00
2018-06-21T15:15:17.244Z,2.10
2018-06-21T15:17:48.772Z,1.80
2018-06-21T15:20:23.831Z,1.83
2018-06-21T15:22:55.558Z,2.00
2018-06-21T15:25:26.869Z,1.80
2018-06-21T15:28:00.681Z,1.80
2018-06-21T15:30:33.505Z,2.10
2018-06-21T15:33:06.108Z,2.20
2018-06-21T15:35:41.791Z,1.60
2018-06-21T15:38:13.547Z,1.43
2018-06-21T15:40:50.296Z,1.77
2018-06-21T15:43:21.815Z,1.87
2018-06-21T15:45:52.566Z,1.83
2018-06-21T15:48:24.354Z,1.70
2018-06-21T15:50:55.297Z,1.63
2018-06-21T15:53:26.247Z,1.50
2018-06-21T15:55:57.955Z,1.77
2018-06-21T15:58:32.332Z,1.73
2018-06-21T16:01:03.968Z,1.60
2018-06-21T16:03:34.731Z,1.50
2018-06-21T16:06:05.075Z,1.60
2018-06-21T16:08:40.171Z,1.67
2018-06-21T16:11:11.325Z,1.47
2018-06-21T16:13:43.132Z,1.87
2018-06-21T16:16:17.012Z,2.13
2018-06-21T16:18:50.201Z,1.70
2018-06-21T16:21:27.317Z,1.93
2018-06-21T16:24:02.557Z,1.57
2018-06-21T16:26:39.158Z,1.67
2018-06-21T16:29:10.097Z,1.50
2018-06-21T16:31:45.603Z,1.77
2018-06-21T16:34:17.872Z,1.63
2018-06-21T16:36:50.004Z,1.97
2018-06-21T16:39:24.514Z,1.60
2018-06-21T16:41:55.881Z,1.90
2018-06-21T16:44:27.637Z,1.73
2018-06-21T16:46:58.995Z,1.60
2018-06-21T16:49:30.760Z,1.40
2018-06-21T16:52:06.397Z,1.67
2018-06-21T16:54:37.427Z,1.77
2018-06-21T16:57:11.554Z,1.47
2018-06-21T16:59:43.943Z,1.60
2018-06-21T17:02:14.713Z,1.80
2018-06-21T17:04:46.957Z,2.00
2018-06-21T17:07:18.205Z,2.27
2018-06-21T17:09:49.758Z,1.63
2018-06-21T17:12:21.578Z,1.97
2018-06-21T17:14:53.299Z,1.53
2018-06-21T17:17:27.737Z,1.60
2018-06-21T17:19:58.459Z,1.40
2018-06-21T17:22:32.866Z,1.77
2018-06-21T17:25:07.808Z,1.83
2018-06-21T17:27:39.731Z,1.73
2018-06-21T17:30:10.606Z,1.43
2018-06-21T17:32:42.890Z,1.83
2018-06-21T17:35:14.436Z,1.80
2018-06-21T17:37:46.412Z,1.67
2018-06-21T17:40:22.672Z,2.37
2018-06-21T17:42:55.362Z,2.20
2018-06-21T17:45:26.703Z,1.73
2018-06-21T17:47:58.277Z,1.80
2018-06-21T17:50:29.315Z,1.97
2018-06-21T17:53:00.067Z,1.60
2018-06-21T17:55:32.255Z,2.10
2018-06-21T17:58:03.584Z,2.53
2018-06-21T18:00:34.874Z,1.90
2018-06-21T18:03:07.014Z,1.70
2018-06-21T18:05:39.057Z,1.87
2018-06-21T18:08:10.308Z,1.30
2018-06-21T18:10:42.236Z,1.30
2018-06-21T18:13:23.706Z,1.10
2018-06-21T18:15:56.159Z,1.43
2018-06-21T18:18:28.017Z,1.60
2018-06-21T18:21:00.335Z,1.70
2018-06-21T18:23:31.628Z,1.60
2018-06-21T18:26:02.498Z,1.80
2018-06-21T18:28:35.612Z,1.60
2018-06-21T18:31:08.005Z,1.50
2018-06-21T18:33:39.639Z,1.70
2018-06-21T18:36:14.432Z,1.43
2018-06-21T18:38:45.352Z,1.60
2018-06-21T18:41:18.065Z,1.50
2018-06-21T18:43:53.811Z,1.77
2018-06-21T18:46:24.712Z,1.57
2018-06-21T18:48:57.228Z,2.47
2018-06-21T18:51:30.340Z,1.87
2018-06-21T18:54:01.157Z,1.77
2018-06-21T18:56:35.116Z,2.03
2018-06-21T18:59:07.124Z,1.70
2018-06-21T19:01:39.176Z,1.87
2018-06-21T19:04:17.706Z,1.67
2018-06-21T19:06:57.903Z,1.60
2018-06-21T19:09:34.908Z,1.87
2018-06-21T19:12:08.843Z,1.40
2018-06-21T19:14:45.516Z,1.87
2018-06-21T19:17:17.465Z,2.00
2018-06-21T19:19:49.066Z,1.83
2018-06-21T19:22:21.743Z,2.03
2018-06-21T19:24:53.303Z,2.03
2018-06-21T19:27:25.180Z,2.00
2018-06-21T19:29:57.383Z,2.77
2018-06-21T19:32:38.246Z,2.00
2018-06-21T19:35:12.833Z,1.60
2018-06-21T19:37:45.378Z,1.73
2018-06-21T19:40:16.497Z,2.40
2018-06-21T19:42:53.496Z,1.90
2018-06-21T19:45:25.844Z,2.00
2018-06-21T19:47:58.206Z,2.20
2018-06-21T19:50:31.766Z,1.93
2018-06-21T19:53:04.165Z,2.30
2018-06-21T19:55:36.878Z,1.87
2018-06-21T19:58:08.752Z,2.10
2018-06-21T20:00:42.089Z,2.23
2018-06-21T20:03:13.922Z,1.87
2018-06-21T20:06:02.010Z,1.87
2018-06-21T20:08:36.864Z,2.00
2018-06-21T20:11:19.781Z,1.67
2018-06-21T20:13:56.058Z,2.50
2018-06-21T20:16:34.503Z,2.67
2018-06-21T20:19:16.622Z,2.30
2018-06-21T20:21:52.120Z,2.03
2018-06-21T20:24:23.928Z,2.33
2018-06-21T20:27:01.322Z,1.87
2018-06-21T20:29:32.740Z,2.40
2018-06-21T20:32:08.183Z,1.77
2018-06-21T20:34:40.746Z,1.90
2018-06-21T20:37:16.442Z,2.33
2018-06-21T20:39:51.952Z,1.80
2018-06-21T20:42:24.293Z,2.10
2018-06-21T20:44:56.540Z,2.30
2018-06-21T20:47:29.290Z,2.23
2018-06-21T20:50:05.300Z,2.30
2018-06-21T20:52:37.191Z,2.00
2018-06-21T20:55:09.445Z,2.10
2018-06-21T20:57:44.362Z,2.40
2018-06-21T21:00:17.127Z,2.23
2018-06-21T21:02:47.959Z,1.90
2018-06-21T21:05:19.186Z,2.43
2018-06-21T21:07:55.099Z,2.00
2018-06-21T21:10:26.186Z,1.90
2018-06-21T21:12:58.613Z,1.93
2018-06-21T21:15:30.278Z,2.10
2018-06-21T21:18:07.245Z,1.60
2018-06-21T21:20:38.697Z,1.83
2018-06-21T21:23:13.917Z,2.30
2018-06-21T21:25:51.481Z,1.97
2018-06-21T21:28:30.982Z,2.37
2018-06-21T21:31:17.219Z,2.23
2018-06-21T21:33:50.853Z,2.03
2018-06-21T21:36:27.943Z,2.23
2018-06-21T21:39:00.382Z,2.40
2018-06-21T21:41:38.645Z,2.87
2018-06-21T21:44:09.869Z,2.30
2018-06-21T21:46:42.600Z,2.23
2018-06-21T21:49:15.406Z,2.20
2018-06-21T21:51:47.876Z,2.77
2018-06-21T21:54:20.902Z,2.30
2018-06-21T21:56:53.031Z,2.00
2018-06-21T21:59:25.680Z,2.50
2018-06-21T22:01:57.948Z,2.77
2018-06-21T22:04:30.489Z,2.30
2018-06-21T22:07:03.460Z,2.40
2018-06-21T22:09:37.368Z,2.20
2018-06-21T22:12:10.789Z,2.83
2018-06-21T22:14:44.621Z,3.33
2018-06-21T22:17:17.134Z,2.37
2018-06-21T22:20:10.672Z,2.70
2018-06-21T22:22:43.817Z,2.00
2018-06-21T22:25:19.353Z,2.83
2018-06-21T22:30:49.865Z,2.07
2018-06-21T22:33:22.568Z,2.30
2018-06-21T22:35:54.232Z,2.67
2018-06-21T22:38:25.752Z,2.23
2018-06-21T22:40:58.155Z,3.00
2018-06-21T22:43:34.645Z,2.87
2018-06-21T22:46:06.840Z,2.50
2018-06-21T22:48:39.108Z,2.43
2018-06-21T22:51:11.956Z,2.13
2018-06-21T22:53:43.992Z,2.97
2018-06-21T22:56:16.866Z,2.63
2018-06-21T23:01:44.338Z,2.60
2018-06-21T23:09:59.874Z,2.37
2018-06-21T23:12:31.746Z,2.87
2018-06-21T23:15:03.719Z,2.43
2018-06-21T23:17:37.477Z,2.53
2018-06-21T23:20:10.250Z,2.77
2018-06-21T23:22:42.070Z,2.57
2018-06-21T23:25:14.862Z,3.00
2018-06-21T23:27:46.529Z,2.33
2018-06-21T23:30:18.958Z,2.43
2018-06-21T23:32:50.299Z,2.47
2018-06-21T23:35:25.897Z,2.30
2018-06-21T23:37:57.825Z,2.20
2018-06-21T23:40:30.584Z,3.10
2018-06-21T23:43:03.704Z,2.93
2018-06-21T23:45:39.535Z,3.37
2018-06-21T23:48:13.209Z,3.87
2018-06-21T23:50:49.803Z,3.50
2018-06-21T23:53:21.529Z,4.67
2018-06-21T23:56:09.570Z,4.40
